Terminal Aerodrome Forecast
Issued by NWS

Home | Current Version | Previous Version | Text Only | Print | Product List | Glossary On
Versions: 1 2 3 4 5 6 7 8 9 10 11 12 13 14
042
FTUS46 KPDT 272324
TAFRDM
TAF
KRDM 272324Z 2800/2824 26015G25KT P6SM VCSH OVC050
      TEMPO 2800/2804 3SM -SHSN BR OVC030
     FM280400 24012KT P6SM VCSH BKN050=

USA.gov is the U.S. government's official web portal to all federal, state and local government web resources and services.